Portada
METAR-TAF:

METAR-TAF

Aeropuertos :

Nueva Orleans, Luisiana, Estados Unidos

Aeropuerto Internacional Louis Armstrong

latitud: 29-59-34N, longitud: 090-15-03W, altitud: 1 m

Observación

El informe se hizo hace 1 hora y 5 minutos, a las 18:53 UTC
Viento 6 kt del norte
Temperatura 3°C
Humedad 52%
Presión 1033 hPa
Visibilidad: 16.1 km
Cielo despejado

METAR: KMSY 181853Z 36006KT 10SM CLR 03/M06 A3051 RMK AO2 SLP335 T00331061

Hora: 13:58 (19:58 UTC)

Pronóstico

El informe se hizo hace 2 horas y 11 minutos, a las 17:47 UTC
Pronóstico válido del 18 a las 18 UTC al 19 a las 24 UTC
Viento 7 kt del noreste
Visibilidad: 10 km
Escasas nubes a una altura de 1000 ft
A partir de las 19 a las 1700 UTC
Viento 5 kt del este
Visibilidad: 10 km
Nubes dispersas a una altura de 10000 ft

TAF: KMSY 181747Z 1818/1924 05007KT P6SM FEW010 FM191700 08005KT P6SM SCT100

Observaciones y pronósticos meteorológicos de más de 4000 aeropuertos (mensajes METAR y TAF).

Los puntos amarillos y rojos representan las estaciones disponibles.

Ponga el ratón en el punto deseado para ver el nombre de la estación.

Haga clic para ver las observaciones y los pronósticos meteorológicos.

Para cambiar el mapa : haga clic en los botones verdes con una cruz de color negro para hacer un zoom, en el botón verde con un guión para alejar o en las flechas verdes para mapas adyacentes.


METAR-TAF: